createdAt,value
2019-01-23T00:01:13.028Z,11.43
2019-01-23T00:03:42.160Z,12.07
2019-01-23T00:06:10.995Z,10.15
2019-01-23T00:08:39.720Z,11.40
2019-01-23T00:11:09.740Z,10.30
2019-01-23T00:13:38.984Z,11.83
2019-01-23T00:16:07.868Z,11.83
2019-01-23T00:18:36.945Z,12.78
2019-01-23T00:21:05.691Z,11.85
2019-01-23T00:23:34.654Z,12.58
2019-01-23T00:26:03.918Z,11.40
2019-01-23T00:28:32.906Z,12.80
2019-01-23T00:31:01.877Z,11.70
2019-01-23T00:33:30.640Z,12.40
2019-01-23T00:35:59.360Z,11.25
2019-01-23T00:38:28.099Z,12.35
2019-01-23T00:40:58.080Z,13.70
2019-01-23T00:43:26.816Z,12.35
2019-01-23T00:45:55.685Z,12.98
2019-01-23T00:48:28.307Z,12.98
2019-01-23T00:50:57.580Z,12.18
2019-01-23T00:53:26.560Z,12.82
2019-01-23T00:55:55.361Z,12.28
2019-01-23T00:58:24.081Z,13.32
2019-01-23T01:00:55.197Z,13.72
2019-01-23T01:03:23.977Z,13.58
2019-01-23T01:05:52.697Z,13.05
2019-01-23T01:08:21.417Z,14.03
2019-01-23T01:10:50.182Z,14.28
2019-01-23T01:13:19.260Z,13.35
2019-01-23T01:15:48.408Z,14.58
2019-01-23T01:18:17.618Z,12.93
2019-01-23T01:20:46.576Z,13.25
2019-01-23T01:23:15.401Z,13.03
2019-01-23T01:25:44.946Z,13.05
2019-01-23T01:28:14.164Z,14.98
2019-01-23T01:30:43.150Z,13.68
2019-01-23T01:33:12.439Z,14.25
2019-01-23T01:35:42.004Z,14.78
2019-01-23T01:38:10.984Z,13.83
2019-01-23T01:40:40.061Z,15.28
2019-01-23T01:43:09.172Z,13.28
2019-01-23T01:45:37.929Z,13.90
2019-01-23T01:48:06.881Z,13.10
2019-01-23T01:50:35.964Z,14.38
2019-01-23T01:53:05.112Z,14.43
2019-01-23T01:55:34.092Z,15.85
2019-01-23T01:58:03.149Z,14.93
2019-01-23T02:00:31.954Z,14.05
2019-01-23T02:03:01.000Z,15.15
2019-01-23T02:05:30.020Z,13.58
2019-01-23T02:07:58.784Z,16.70
2019-01-23T02:10:27.821Z,14.00
2019-01-23T02:12:56.576Z,16.95
2019-01-23T02:15:27.374Z,15.05
2019-01-23T02:17:56.362Z,15.48
2019-01-23T02:20:27.051Z,14.55
2019-01-23T02:22:55.881Z,13.25
2019-01-23T02:25:24.685Z,13.80
2019-01-23T02:27:54.033Z,13.78
2019-01-23T02:30:24.554Z,14.03
2019-01-23T02:32:53.752Z,14.25
2019-01-23T02:35:22.922Z,14.15
2019-01-23T02:37:52.209Z,13.60
2019-01-23T02:40:22.508Z,14.07
2019-01-23T02:42:51.399Z,12.28
2019-01-23T02:45:21.363Z,14.33
2019-01-23T02:47:50.459Z,12.93
2019-01-23T02:50:19.348Z,11.20
2019-01-23T02:52:48.376Z,13.72
2019-01-23T02:55:17.495Z,10.80
2019-01-23T02:57:46.489Z,13.85
2019-01-23T03:00:17.147Z,12.85
2019-01-23T03:02:47.105Z,10.70
2019-01-23T03:05:17.552Z,12.23
2019-01-23T03:07:46.801Z,11.50
2019-01-23T03:10:17.734Z,12.95
2019-01-23T03:12:46.647Z,11.65
2019-01-23T03:15:16.179Z,10.70
2019-01-23T03:17:46.045Z,12.23
2019-01-23T03:20:16.509Z,12.05
2019-01-23T03:22:45.948Z,11.20
2019-01-23T03:25:15.266Z,13.13
2019-01-23T03:27:44.460Z,11.83
2019-01-23T03:30:16.195Z,11.78
2019-01-23T03:32:45.170Z,12.68
2019-01-23T03:35:14.345Z,11.78
2019-01-23T03:37:43.494Z,13.00
2019-01-23T03:40:14.633Z,11.55
2019-01-23T03:42:44.126Z,11.60
2019-01-23T03:45:14.267Z,12.58
2019-01-23T03:47:43.589Z,11.33
2019-01-23T03:50:15.509Z,13.03
2019-01-23T03:52:44.525Z,12.20
2019-01-23T03:55:14.474Z,12.05
2019-01-23T03:57:43.387Z,11.83
2019-01-23T04:00:14.518Z,12.20
2019-01-23T04:02:43.516Z,12.93
2019-01-23T04:05:12.594Z,11.75
2019-01-23T04:07:41.425Z,11.33
2019-01-23T04:10:13.161Z,12.05
2019-01-23T04:12:41.985Z,11.93
2019-01-23T04:15:13.562Z,12.63
2019-01-23T04:17:42.628Z,12.85
2019-01-23T04:20:13.992Z,12.18
2019-01-23T04:22:42.799Z,13.40
2019-01-23T04:25:12.262Z,11.20
2019-01-23T04:27:41.265Z,11.48
2019-01-23T04:30:13.161Z,10.93
2019-01-23T04:32:41.893Z,13.15
2019-01-23T04:35:11.137Z,11.70
2019-01-23T04:37:40.221Z,12.70
2019-01-23T04:40:09.619Z,11.40
2019-01-23T04:42:38.621Z,12.68
2019-01-23T04:45:09.431Z,11.90
2019-01-23T04:47:40.074Z,12.70
2019-01-23T04:50:10.279Z,12.73
2019-01-23T04:52:45.238Z,11.78
2019-01-23T04:55:14.049Z,11.80
2019-01-23T04:57:43.018Z,12.90
2019-01-23T05:00:13.677Z,12.93
2019-01-23T05:02:42.493Z,12.43
2019-01-23T05:05:12.870Z,11.65
2019-01-23T05:08:00.877Z,11.33
2019-01-23T05:10:30.133Z,12.25
2019-01-23T05:12:58.929Z,11.20
2019-01-23T05:15:29.304Z,11.48
2019-01-23T05:17:58.026Z,13.58
2019-01-23T05:20:26.857Z,12.50
2019-01-23T05:22:55.600Z,13.30
2019-01-23T05:25:24.617Z,12.13
2019-01-23T05:27:53.697Z,11.22
2019-01-23T05:30:24.091Z,11.63
2019-01-23T05:32:52.973Z,12.75
2019-01-23T05:35:21.781Z,11.15
2019-01-23T05:37:50.777Z,11.05
2019-01-23T05:40:19.837Z,12.55
2019-01-23T05:42:49.078Z,12.00
2019-01-23T05:45:37.172Z,10.88
2019-01-23T05:48:05.922Z,11.65
2019-01-23T05:50:34.934Z,12.25
2019-01-23T05:53:04.117Z,12.88
2019-01-23T05:55:33.094Z,11.65
2019-01-23T05:58:01.834Z,12.75
2019-01-23T06:00:30.889Z,13.48
2019-01-23T06:02:59.753Z,13.13
2019-01-23T06:05:28.496Z,13.20
2019-01-23T06:07:57.452Z,13.68
2019-01-23T06:10:26.304Z,11.95
2019-01-23T06:12:56.532Z,12.80
2019-01-23T06:15:26.664Z,12.75
2019-01-23T06:17:55.559Z,12.95
2019-01-23T06:20:24.487Z,12.98
2019-01-23T06:22:53.781Z,12.82
2019-01-23T06:25:22.857Z,13.38
2019-01-23T06:27:51.693Z,12.30
2019-01-23T06:30:23.106Z,11.10
2019-01-23T06:32:51.827Z,13.18
2019-01-23T06:35:20.645Z,12.82
2019-01-23T06:37:49.799Z,13.05
2019-01-23T06:40:20.128Z,14.03
2019-01-23T06:42:49.229Z,13.10
2019-01-23T06:45:18.747Z,13.78
2019-01-23T06:47:48.670Z,12.90
2019-01-23T06:50:19.108Z,13.75
2019-01-23T06:52:48.392Z,13.10
2019-01-23T06:55:17.210Z,13.78
2019-01-23T06:57:46.013Z,13.68
2019-01-23T07:00:23.132Z,13.10
2019-01-23T07:02:52.294Z,13.18
2019-01-23T07:05:21.427Z,12.68
2019-01-23T07:07:51.097Z,13.75
2019-01-23T07:10:22.357Z,14.70
2019-01-23T07:12:51.524Z,12.00
2019-01-23T07:15:20.722Z,12.63
2019-01-23T07:17:51.075Z,13.03
2019-01-23T07:20:25.002Z,14.83
2019-01-23T07:22:53.985Z,13.15
2019-01-23T07:25:22.890Z,13.60
2019-01-23T07:27:52.193Z,12.50
2019-01-23T07:30:24.271Z,12.73
2019-01-23T07:32:53.541Z,13.43
2019-01-23T07:35:22.473Z,12.25
2019-01-23T07:37:51.238Z,12.85
2019-01-23T07:40:19.961Z,12.75
2019-01-23T07:42:48.713Z,12.88
2019-01-23T07:45:18.192Z,11.43
2019-01-23T07:47:46.954Z,12.75
2019-01-23T07:50:16.075Z,12.13
2019-01-23T07:52:45.062Z,11.97
2019-01-23T07:55:15.439Z,12.90
2019-01-23T07:57:44.473Z,14.55
2019-01-23T08:00:17.919Z,11.88
2019-01-23T08:02:47.120Z,12.20
2019-01-23T08:05:19.807Z,13.45
2019-01-23T08:07:48.750Z,13.50
2019-01-23T08:10:17.816Z,12.53
2019-01-23T08:12:46.934Z,13.08
2019-01-23T08:15:35.624Z,12.28
2019-01-23T08:18:05.034Z,12.25
2019-01-23T08:20:34.088Z,14.58
2019-01-23T08:23:02.885Z,12.65
2019-01-23T08:25:31.884Z,13.08
2019-01-23T08:28:01.160Z,12.80
2019-01-23T08:30:30.071Z,12.82
2019-01-23T08:32:58.826Z,12.82
2019-01-23T08:35:27.936Z,12.75
2019-01-23T08:37:57.104Z,13.88
2019-01-23T08:40:26.182Z,14.50
2019-01-23T08:42:55.346Z,10.98
2019-01-23T08:45:24.173Z,14.73
2019-01-23T08:47:52.992Z,13.90
2019-01-23T08:50:24.942Z,14.68
2019-01-23T08:52:53.773Z,13.78
2019-01-23T08:55:23.096Z,12.30
2019-01-23T08:57:52.081Z,14.53
2019-01-23T09:00:20.992Z,14.33
2019-01-23T09:02:50.079Z,13.72
2019-01-23T09:05:18.877Z,13.13
2019-01-23T09:07:47.736Z,13.60
2019-01-23T09:10:19.522Z,12.58
2019-01-23T09:12:48.403Z,13.47
2019-01-23T09:15:17.400Z,14.20
2019-01-23T09:17:46.333Z,13.72
2019-01-23T09:20:16.514Z,13.43
2019-01-23T09:22:45.421Z,12.23
2019-01-23T09:25:16.965Z,12.50
2019-01-23T09:27:45.843Z,13.50
2019-01-23T09:30:26.637Z,12.47
2019-01-23T09:33:16.507Z,14.07
2019-01-23T09:35:54.602Z,13.15
2019-01-23T09:39:26.366Z,13.40
2019-01-23T09:42:15.594Z,13.58
2019-01-23T09:45:34.584Z,12.85
2019-01-23T09:49:06.181Z,13.40
2019-01-23T09:52:20.817Z,11.63
2019-01-23T09:54:49.589Z,13.73
2019-01-23T09:57:18.333Z,14.37
2019-01-23T09:59:47.079Z,13.07
2019-01-23T10:02:15.828Z,13.53
2019-01-23T10:04:44.554Z,12.83
2019-01-23T10:07:13.316Z,16.03
2019-01-23T10:09:42.294Z,13.20
2019-01-23T10:12:11.269Z,13.50
2019-01-23T10:14:40.244Z,13.03
2019-01-23T10:17:08.973Z,13.17
2019-01-23T10:19:37.705Z,12.23
2019-01-23T10:22:07.557Z,14.67
2019-01-23T10:24:36.329Z,12.30
2019-01-23T10:27:05.374Z,13.40
2019-01-23T10:29:34.117Z,12.73
2019-01-23T10:32:02.859Z,14.37
2019-01-23T10:34:32.474Z,12.40
2019-01-23T10:37:01.433Z,12.07
2019-01-23T10:39:30.396Z,13.13
2019-01-23T10:42:00.209Z,12.80
2019-01-23T10:44:29.186Z,12.80
2019-01-23T10:46:58.140Z,13.03
2019-01-23T10:49:27.156Z,13.73
2019-01-23T10:51:56.185Z,13.37
2019-01-23T10:54:24.897Z,11.17
2019-01-23T10:56:53.705Z,11.73
2019-01-23T10:59:22.712Z,11.73
2019-01-23T11:01:51.739Z,11.93
2019-01-23T11:04:20.856Z,12.97
2019-01-23T11:06:49.669Z,11.88
2019-01-23T11:09:18.746Z,12.53
2019-01-23T11:11:47.782Z,11.93
2019-01-23T11:14:16.525Z,11.87
2019-01-23T11:16:45.300Z,12.10
2019-01-23T11:19:14.093Z,12.30
2019-01-23T11:21:43.072Z,13.87
2019-01-23T11:24:11.817Z,13.07
2019-01-23T11:26:40.610Z,13.47
2019-01-23T11:29:28.867Z,13.03
2019-01-23T11:31:57.613Z,11.30
2019-01-23T11:34:26.387Z,13.15
2019-01-23T11:36:55.129Z,12.70
2019-01-23T11:39:24.012Z,11.73
2019-01-23T11:41:52.828Z,11.33
2019-01-23T11:44:21.561Z,12.57
2019-01-23T11:46:50.311Z,12.10
2019-01-23T11:49:19.144Z,12.50
2019-01-23T11:51:47.866Z,13.70
2019-01-23T11:54:17.103Z,13.10
2019-01-23T11:56:46.234Z,12.50
2019-01-23T11:59:14.978Z,11.67
2019-01-23T12:01:43.966Z,11.47
2019-01-23T12:04:13.014Z,12.87
2019-01-23T12:06:41.849Z,11.20
2019-01-23T12:09:11.275Z,12.13
2019-01-23T12:11:40.385Z,12.27
2019-01-23T12:14:09.155Z,11.70
2019-01-23T12:16:38.315Z,12.77
2019-01-23T12:19:07.262Z,11.93
2019-01-23T12:21:36.080Z,12.27
2019-01-23T12:24:05.202Z,13.13
2019-01-23T12:26:34.173Z,12.20
2019-01-23T12:29:03.209Z,11.23
2019-01-23T12:31:35.214Z,12.40
2019-01-23T12:34:02.882Z,11.70
2019-01-23T12:36:31.897Z,11.60
2019-01-23T12:39:00.602Z,11.17
2019-01-23T12:41:29.346Z,10.63
2019-01-23T12:43:58.122Z,11.07
2019-01-23T12:46:27.084Z,11.37
2019-01-23T12:48:55.897Z,10.60
2019-01-23T12:51:24.615Z,11.05
2019-01-23T12:53:53.334Z,12.20
2019-01-23T12:56:22.320Z,11.47
2019-01-23T12:58:51.282Z,11.70
2019-01-23T13:01:20.254Z,11.60
2019-01-23T13:04:08.461Z,11.80
2019-01-23T13:06:37.405Z,11.40
2019-01-23T13:09:09.207Z,12.60
2019-01-23T13:11:37.913Z,12.73
2019-01-23T13:14:06.861Z,14.30
2019-01-23T13:16:35.613Z,13.10
2019-01-23T13:19:04.437Z,12.13
2019-01-23T13:21:33.224Z,12.80
2019-01-23T13:24:01.937Z,13.27
2019-01-23T13:26:30.780Z,13.67
2019-01-23T13:29:02.673Z,13.70
2019-01-23T13:31:31.721Z,11.60
2019-01-23T13:34:00.634Z,12.60
2019-01-23T13:36:29.402Z,12.10
2019-01-23T13:38:58.396Z,13.13
2019-01-23T13:41:27.399Z,13.10
2019-01-23T13:43:56.265Z,12.50
2019-01-23T13:46:24.981Z,13.07
2019-01-23T13:49:01.983Z,13.50
2019-01-23T13:51:31.756Z,11.70
2019-01-23T13:54:01.103Z,13.37
2019-01-23T13:56:29.822Z,14.13
2019-01-23T13:58:59.148Z,14.30
2019-01-23T14:01:28.134Z,14.20
2019-01-23T14:03:56.892Z,12.60
2019-01-23T14:06:25.701Z,14.33
2019-01-23T14:08:54.424Z,12.50
2019-01-23T14:11:23.588Z,15.70
2019-01-23T14:13:52.549Z,15.47
2019-01-23T14:16:21.338Z,14.43
2019-01-23T14:18:50.152Z,13.20
2019-01-23T14:21:19.350Z,14.23
2019-01-23T14:23:48.309Z,12.90
2019-01-23T14:26:17.172Z,13.00
2019-01-23T14:28:46.131Z,14.00
2019-01-23T14:31:15.160Z,13.83
2019-01-23T14:33:43.894Z,14.87
2019-01-23T14:36:12.609Z,13.67
2019-01-23T14:38:41.867Z,14.00
2019-01-23T14:41:10.838Z,13.53
2019-01-23T14:43:39.785Z,13.23
2019-01-23T14:46:08.777Z,13.23
2019-01-23T14:48:37.749Z,13.50
2019-01-23T14:51:06.989Z,14.20
2019-01-23T14:53:35.981Z,13.40
2019-01-23T14:56:04.945Z,14.17
2019-01-23T14:58:33.931Z,12.90
2019-01-23T15:01:02.695Z,13.50
2019-01-23T15:03:31.408Z,13.73
2019-01-23T15:06:00.115Z,14.30
2019-01-23T15:08:29.347Z,14.50
2019-01-23T15:10:58.076Z,13.03
2019-01-23T15:13:26.883Z,11.97
2019-01-23T15:15:55.651Z,12.17
2019-01-23T15:18:25.529Z,13.30
2019-01-23T15:20:54.243Z,15.57
2019-01-23T15:23:23.133Z,13.00
2019-01-23T15:25:52.187Z,12.97
2019-01-23T15:28:21.397Z,13.17
2019-01-23T15:30:50.138Z,12.67
2019-01-23T15:33:18.890Z,12.57
2019-01-23T15:35:47.865Z,12.87
2019-01-23T15:38:16.588Z,12.83
2019-01-23T15:40:45.485Z,12.57
2019-01-23T15:43:16.089Z,13.20
2019-01-23T15:45:44.872Z,13.70
2019-01-23T15:48:13.614Z,13.50
2019-01-23T15:50:42.647Z,14.00
2019-01-23T15:53:11.639Z,12.80
2019-01-23T15:55:40.440Z,12.53
2019-01-23T15:58:12.100Z,12.30
2019-01-23T16:00:40.997Z,11.07
2019-01-23T16:03:09.822Z,12.33
2019-01-23T16:06:00.658Z,13.60
2019-01-23T16:08:29.493Z,11.40
2019-01-23T16:10:58.465Z,13.37
2019-01-23T16:13:27.260Z,12.00
2019-01-23T16:15:56.089Z,13.97
2019-01-23T16:18:24.821Z,12.53
2019-01-23T16:20:53.537Z,13.00
2019-01-23T16:23:22.314Z,12.10
2019-01-23T16:25:51.305Z,12.17
2019-01-23T16:28:20.305Z,13.57
2019-01-23T16:30:49.270Z,11.77
2019-01-23T16:33:19.608Z,13.10
2019-01-23T16:35:48.705Z,11.00
2019-01-23T16:38:17.437Z,11.25
2019-01-23T16:40:46.738Z,11.22
2019-01-23T16:43:15.521Z,11.18
2019-01-23T16:45:44.253Z,12.05
2019-01-23T16:48:14.025Z,12.40
2019-01-23T16:50:42.923Z,12.90
2019-01-23T16:53:11.761Z,11.40
2019-01-23T16:55:40.741Z,10.30
2019-01-23T16:58:10.598Z,11.50
2019-01-23T17:00:39.504Z,11.45
2019-01-23T17:03:10.105Z,12.60
2019-01-23T17:05:38.908Z,11.08
2019-01-23T17:08:09.327Z,11.18
2019-01-23T17:10:38.189Z,12.15
2019-01-23T17:13:07.363Z,11.68
2019-01-23T17:15:36.473Z,11.18
2019-01-23T17:18:05.601Z,11.85
2019-01-23T17:20:38.370Z,10.28
2019-01-23T17:23:07.638Z,10.00
2019-01-23T17:25:36.410Z,9.63
2019-01-23T17:28:24.405Z,9.80
2019-01-23T17:30:53.124Z,10.15
2019-01-23T17:33:22.124Z,10.08
2019-01-23T17:35:51.133Z,11.93
2019-01-23T17:38:19.875Z,10.90
2019-01-23T17:40:48.661Z,10.55
2019-01-23T17:43:17.792Z,12.43
2019-01-23T17:45:46.749Z,11.65
2019-01-23T17:48:15.622Z,12.25
2019-01-23T17:50:44.433Z,12.05
2019-01-23T17:53:13.293Z,11.40
2019-01-23T17:55:42.227Z,11.78
2019-01-23T17:58:13.292Z,9.33
2019-01-23T18:00:49.414Z,12.45
2019-01-23T18:03:18.650Z,11.85
2019-01-23T18:05:51.229Z,11.35
2019-01-23T18:08:18.369Z,12.53
2019-01-23T18:10:47.777Z,13.28
2019-01-23T18:13:17.009Z,12.70
2019-01-23T18:15:45.879Z,13.05
2019-01-23T18:18:18.280Z,12.37
2019-01-23T18:20:47.318Z,11.85
2019-01-23T18:23:16.057Z,11.97
2019-01-23T18:25:44.801Z,12.20
2019-01-23T18:28:13.525Z,11.60
2019-01-23T18:30:51.817Z,12.78
2019-01-23T18:33:25.270Z,12.50
2019-01-23T18:36:25.969Z,13.40
2019-01-23T18:39:08.423Z,13.05
2019-01-23T18:42:01.338Z,14.90
2019-01-23T18:45:00.631Z,14.20
2019-01-23T18:47:51.642Z,13.30
2019-01-23T18:50:42.441Z,13.30
2019-01-23T18:53:11.380Z,14.00
2019-01-23T18:55:40.116Z,13.32
2019-01-23T18:58:08.832Z,13.75
2019-01-23T19:00:37.740Z,14.28
2019-01-23T19:03:07.354Z,15.30
2019-01-23T19:05:36.369Z,16.73
2019-01-23T19:08:07.142Z,15.10
2019-01-23T19:10:35.991Z,16.95
2019-01-23T19:13:05.576Z,14.40
2019-01-23T19:15:34.631Z,15.45
2019-01-23T19:18:03.533Z,17.17
2019-01-23T19:20:32.269Z,19.07
2019-01-23T19:23:01.053Z,17.62
2019-01-23T19:25:29.797Z,17.05
2019-01-23T19:27:58.599Z,14.40
2019-01-23T19:30:27.562Z,15.18
2019-01-23T19:32:56.575Z,15.60
2019-01-23T19:35:25.767Z,15.60
2019-01-23T19:37:54.676Z,15.68
2019-01-23T19:40:23.914Z,16.23
2019-01-23T19:42:52.635Z,16.25
2019-01-23T19:45:22.659Z,16.48
2019-01-23T19:47:52.682Z,14.43
2019-01-23T19:50:21.837Z,14.63
2019-01-23T19:52:51.101Z,15.85
2019-01-23T19:55:19.856Z,15.53
2019-01-23T19:57:48.585Z,19.15
2019-01-23T20:00:19.867Z,19.23
2019-01-23T20:02:48.774Z,18.32
2019-01-23T20:05:20.649Z,15.72
2019-01-23T20:07:49.552Z,18.17
2019-01-23T20:10:19.805Z,16.07
2019-01-23T20:12:48.684Z,17.05
2019-01-23T20:15:18.355Z,17.65
2019-01-23T20:17:47.381Z,19.80
2019-01-23T20:20:16.510Z,19.82
2019-01-23T20:22:45.488Z,18.00
2019-01-23T20:25:17.498Z,18.57
2019-01-23T20:27:46.306Z,18.23
2019-01-23T20:30:22.273Z,17.70
2019-01-23T20:32:51.587Z,17.42
2019-01-23T20:35:21.862Z,18.92
2019-01-23T20:37:50.840Z,17.75
2019-01-23T20:40:19.890Z,18.35
2019-01-23T20:42:49.822Z,18.07
2019-01-23T20:45:19.773Z,19.73
2019-01-23T20:47:48.945Z,18.62
2019-01-23T20:50:22.921Z,17.95
2019-01-23T20:52:51.801Z,17.75
2019-01-23T20:55:20.700Z,16.82
2019-01-23T20:57:49.501Z,17.95
2019-01-23T21:00:26.840Z,19.95
2019-01-23T21:02:55.957Z,18.65
2019-01-23T21:05:25.014Z,18.90
2019-01-23T21:07:53.934Z,19.77
2019-01-23T21:10:23.416Z,19.70
2019-01-23T21:12:52.474Z,17.60
2019-01-23T21:15:23.810Z,18.25
2019-01-23T21:17:52.613Z,18.48
2019-01-23T21:20:21.917Z,20.62
2019-01-23T21:22:50.906Z,19.50
2019-01-23T21:25:19.618Z,20.82
2019-01-23T21:27:48.368Z,20.80
2019-01-23T21:30:19.968Z,23.27
2019-01-23T21:32:48.947Z,20.52
2019-01-23T21:35:18.004Z,22.45
2019-01-23T21:37:46.886Z,21.27
2019-01-23T21:40:19.901Z,20.72
2019-01-23T21:42:48.964Z,23.25
2019-01-23T21:45:17.818Z,23.92
2019-01-23T21:47:49.131Z,28.10
2019-01-23T21:50:19.329Z,24.95
2019-01-23T21:52:48.522Z,31.48
2019-01-23T21:55:19.072Z,58.02
2019-01-23T21:57:47.949Z,23.30
2019-01-23T22:00:25.478Z,22.87
2019-01-23T22:02:55.265Z,21.90
2019-01-23T22:05:24.384Z,22.55
2019-01-23T22:07:53.202Z,21.95
2019-01-23T22:10:22.015Z,23.22
2019-01-23T22:12:50.810Z,22.75
2019-01-23T22:15:21.008Z,23.00
2019-01-23T22:17:49.999Z,23.90
2019-01-23T22:20:19.636Z,21.42
2019-01-23T22:23:07.642Z,21.95
2019-01-23T22:25:36.389Z,22.05
2019-01-23T22:28:05.405Z,19.92
2019-01-23T22:30:34.674Z,20.88
2019-01-23T22:33:03.750Z,20.57
2019-01-23T22:35:51.998Z,22.37
2019-01-23T22:38:20.729Z,21.23
2019-01-23T22:40:49.714Z,21.25
2019-01-23T22:43:18.478Z,22.58
2019-01-23T22:45:47.682Z,23.83
2019-01-23T22:48:16.665Z,21.27
2019-01-23T22:50:45.430Z,21.50
2019-01-23T22:53:14.177Z,23.05
2019-01-23T22:55:43.142Z,22.13
2019-01-23T22:58:12.131Z,22.50
2019-01-23T23:01:15.080Z,22.93
2019-01-23T23:03:44.090Z,22.10
2019-01-23T23:06:13.243Z,21.75
2019-01-23T23:08:42.212Z,22.40
2019-01-23T23:11:10.970Z,22.30
2019-01-23T23:13:39.692Z,21.87
2019-01-23T23:16:08.569Z,30.43
2019-01-23T23:18:37.643Z,26.48
2019-01-23T23:21:06.549Z,27.42
2019-01-23T23:23:35.293Z,24.25
2019-01-23T23:26:04.169Z,23.32
2019-01-23T23:28:32.920Z,20.85
2019-01-23T23:31:01.706Z,21.75
2019-01-23T23:33:30.551Z,19.37
2019-01-23T23:35:59.620Z,20.82
2019-01-23T23:38:28.341Z,21.37
2019-01-23T23:40:57.184Z,22.32
2019-01-23T23:43:25.985Z,20.77
2019-01-23T23:45:54.986Z,21.15
2019-01-23T23:48:23.934Z,20.27
2019-01-23T23:50:52.652Z,22.82
2019-01-23T23:53:21.650Z,24.45
2019-01-23T23:55:50.372Z,21.45
2019-01-23T23:58:19.356Z,21.42
